Time,TemperatureF,DewpointF,PressureIn,WindDirection,WindDirectionDegrees,WindSpeedMPH,WindSpeedGustMPH,Humidity,HourlyPrecipIn,Conditions,Clouds,dailyrainin,SoftwareType,DateUTC
2013-07-12 00:01:00,73.2,61.2,30.02,NW,315,0.0,0.7,66,0.00,,,0.00,pywws,2013-07-12 04:01:00,
2013-07-12 00:02:00,73.2,61.6,30.01,NW,315,0.7,1.6,67,0.00,,,0.00,pywws,2013-07-12 04:02:00,
2013-07-12 00:05:00,73.0,61.4,30.02,North,0,0.7,2.2,67,0.00,,,0.00,pywws,2013-07-12 04:05:00,
2013-07-12 00:06:00,73.0,61.4,30.02,North,0,0.7,1.6,67,0.00,,,0.00,pywws,2013-07-12 04:06:00,
2013-07-12 00:12:00,72.9,61.2,30.02,NW,315,0.7,1.6,67,0.00,,,0.00,pywws,2013-07-12 04:12:00,
2013-07-12 00:17:00,72.7,61.1,30.02,NW,315,0.7,1.6,67,0.00,,,0.00,pywws,2013-07-12 04:17:00,
2013-07-12 00:23:00,72.5,61.3,30.02,NW,315,0.0,0.7,68,0.00,,,0.00,pywws,2013-07-12 04:23:00,
2013-07-12 00:28:00,72.3,61.2,30.03,North,0,1.6,2.2,68,0.00,,,0.00,pywws,2013-07-12 04:28:00,
2013-07-12 00:34:00,72.1,61.0,30.02,North,0,1.6,2.2,68,0.00,,,0.00,pywws,2013-07-12 04:34:00,
2013-07-12 00:40:00,72.1,61.0,30.02,NW,315,0.7,1.6,68,0.00,,,0.00,pywws,2013-07-12 04:40:00,
2013-07-12 00:45:00,72.0,61.2,30.02,North,0,0.0,1.6,69,0.00,,,0.00,pywws,2013-07-12 04:45:00,
2013-07-12 00:51:00,71.8,61.1,30.02,North,0,1.6,2.2,69,0.00,,,0.00,pywws,2013-07-12 04:51:00,
2013-07-12 00:56:00,71.6,60.9,30.02,North,0,1.6,2.2,69,0.00,,,0.00,pywws,2013-07-12 04:56:00,
2013-07-12 01:02:00,71.4,61.1,30.02,North,0,0.7,2.2,70,0.00,,,0.00,pywws,2013-07-12 05:02:00,
2013-07-12 01:08:00,71.4,61.1,30.03,NE,45,0.7,1.6,70,0.00,,,0.00,pywws,2013-07-12 05:08:00,
2013-07-12 01:13:00,71.4,60.7,30.03,NNE,22,1.6,2.2,69,0.00,,,0.00,pywws,2013-07-12 05:13:00,
2013-07-12 01:19:00,71.6,60.5,30.02,NE,45,0.7,1.6,68,0.00,,,0.00,pywws,2013-07-12 05:19:00,
2013-07-12 01:24:00,71.8,60.2,30.03,NE,45,2.2,4.5,67,0.00,,,0.00,pywws,2013-07-12 05:24:00,
2013-07-12 01:30:00,71.8,60.2,30.03,NE,45,0.0,3.1,67,0.00,,,0.00,pywws,2013-07-12 05:30:00,
2013-07-12 01:36:00,71.8,60.2,30.02,North,0,2.2,3.1,67,0.00,,,0.00,pywws,2013-07-12 05:36:00,
2013-07-12 01:41:00,71.8,60.2,30.02,NW,315,0.7,1.6,67,0.00,,,0.00,pywws,2013-07-12 05:41:00,
2013-07-12 01:47:00,71.8,60.2,30.03,NE,45,0.7,1.6,67,0.00,,,0.00,pywws,2013-07-12 05:47:00,
2013-07-12 01:52:00,71.8,60.2,30.03,North,0,0.0,0.7,67,0.00,,,0.00,pywws,2013-07-12 05:52:00,
2013-07-12 01:58:00,71.6,60.0,30.03,NW,315,0.0,1.6,67,0.00,,,0.00,pywws,2013-07-12 05:58:00,
2013-07-12 02:04:00,71.4,60.3,30.02,NNE,22,0.7,1.6,68,0.00,,,0.00,pywws,2013-07-12 06:04:00,
2013-07-12 02:09:00,71.4,60.3,30.02,North,0,0.7,3.8,68,0.00,,,0.00,pywws,2013-07-12 06:09:00,
2013-07-12 02:15:00,71.4,60.3,30.02,NE,45,0.7,1.6,68,0.00,,,0.00,pywws,2013-07-12 06:15:00,
2013-07-12 02:20:00,71.2,60.1,30.02,NE,45,1.6,3.1,68,0.00,,,0.00,pywws,2013-07-12 06:20:00,
2013-07-12 02:26:00,71.2,60.1,30.02,SW,225,0.7,1.6,68,0.00,,,0.00,pywws,2013-07-12 06:26:00,
2013-07-12 02:32:00,71.2,60.1,30.02,East,90,1.6,2.2,68,0.00,,,0.00,pywws,2013-07-12 06:32:00,
2013-07-12 02:37:00,71.2,60.1,30.02,East,90,2.2,3.1,68,0.00,,,0.00,pywws,2013-07-12 06:37:00,
2013-07-12 02:43:00,71.2,59.7,30.02,NNW,338,0.0,1.6,67,0.00,,,0.00,pywws,2013-07-12 06:43:00,
2013-07-12 02:48:00,71.1,60.0,30.03,NNE,22,3.8,5.4,68,0.00,,,0.00,pywws,2013-07-12 06:48:00,
2013-07-12 02:54:00,71.1,60.0,30.03,East,90,1.6,3.1,68,0.00,,,0.00,pywws,2013-07-12 06:54:00,
2013-07-12 03:00:00,71.1,60.0,30.03,NNE,22,0.0,1.6,68,0.00,,,0.00,pywws,2013-07-12 07:00:00,
2013-07-12 03:06:00,71.1,60.0,30.03,NNW,338,1.6,3.1,68,0.00,,,0.00,pywws,2013-07-12 07:06:00,
2013-07-12 03:12:00,70.9,59.8,30.03,North,0,0.7,1.6,68,0.00,,,0.00,pywws,2013-07-12 07:12:00,
2013-07-12 03:17:00,70.9,59.8,30.03,North,0,1.6,2.2,68,0.00,,,0.00,pywws,2013-07-12 07:17:00,
2013-07-12 03:23:00,70.9,59.8,30.03,North,0,1.6,2.2,68,0.00,,,0.00,pywws,2013-07-12 07:23:00,
2013-07-12 03:28:00,70.5,59.8,30.03,North,0,1.6,2.2,69,0.00,,,0.00,pywws,2013-07-12 07:28:00,
2013-07-12 03:34:00,70.3,59.7,30.03,North,0,0.7,1.6,69,0.00,,,0.00,pywws,2013-07-12 07:34:00,
2013-07-12 03:40:00,70.2,59.5,30.04,NW,315,2.2,3.8,69,0.00,,,0.00,pywws,2013-07-12 07:40:00,
2013-07-12 03:45:00,70.2,59.5,30.04,North,0,0.7,1.6,69,0.00,,,0.00,pywws,2013-07-12 07:45:00,
2013-07-12 03:51:00,70.2,59.5,30.04,North,0,1.6,2.2,69,0.00,,,0.00,pywws,2013-07-12 07:51:00,
2013-07-12 03:56:00,70.2,59.5,30.04,North,0,0.7,2.2,69,0.00,,,0.00,pywws,2013-07-12 07:56:00,
2013-07-12 04:02:00,70.2,59.9,30.04,North,0,0.7,1.6,70,0.00,,,0.00,pywws,2013-07-12 08:02:00,
2013-07-12 04:09:00,70.2,59.9,30.04,NW,315,0.0,0.7,70,0.00,,,0.00,pywws,2013-07-12 08:09:00,
2013-07-12 04:15:00,70.2,59.9,30.04,North,0,0.0,0.0,70,0.00,,,0.00,pywws,2013-07-12 08:15:00,
2013-07-12 04:20:00,70.2,59.9,30.05,North,0,0.0,0.7,70,0.00,,,0.00,pywws,2013-07-12 08:20:00,
2013-07-12 04:26:00,70.2,59.9,30.04,North,0,0.7,1.6,70,0.00,,,0.00,pywws,2013-07-12 08:26:00,
2013-07-12 04:32:00,70.2,59.9,30.05,North,0,1.6,3.1,70,0.00,,,0.00,pywws,2013-07-12 08:32:00,
2013-07-12 04:37:00,70.2,59.9,30.05,North,0,0.0,0.7,70,0.00,,,0.00,pywws,2013-07-12 08:37:00,
2013-07-12 04:43:00,70.2,59.9,30.05,North,0,0.0,0.7,70,0.00,,,0.00,pywws,2013-07-12 08:43:00,
2013-07-12 04:48:00,70.2,59.9,30.06,NE,45,2.2,3.1,70,0.00,,,0.00,pywws,2013-07-12 08:48:00,
2013-07-12 04:54:00,70.2,59.9,30.05,NNE,22,1.6,3.8,70,0.00,,,0.00,pywws,2013-07-12 08:54:00,
2013-07-12 05:05:00,70.2,59.9,30.06,NE,45,0.7,1.6,70,0.00,,,0.00,pywws,2013-07-12 09:05:00,
2013-07-12 05:11:00,70.2,60.3,30.06,East,90,0.0,0.0,71,0.00,,,0.00,pywws,2013-07-12 09:11:00,
2013-07-12 05:16:00,70.2,60.3,30.06,NE,45,2.2,3.1,71,0.00,,,0.00,pywws,2013-07-12 09:16:00,
2013-07-12 05:22:00,70.0,60.1,30.06,North,0,0.7,1.6,71,0.00,,,0.00,pywws,2013-07-12 09:22:00,
2013-07-12 05:28:00,70.0,60.1,30.06,East,90,3.8,6.0,71,0.00,,,0.00,pywws,2013-07-12 09:28:00,
2013-07-12 05:33:00,70.2,59.9,30.06,NE,45,0.7,2.2,70,0.00,,,0.00,pywws,2013-07-12 09:33:00,
2013-07-12 05:39:00,70.2,59.9,30.06,North,0,1.6,3.1,70,0.00,,,0.00,pywws,2013-07-12 09:39:00,
2013-07-12 05:44:00,70.3,60.1,30.06,East,90,0.7,1.6,70,0.00,,,0.00,pywws,2013-07-12 09:44:00,
2013-07-12 05:50:00,70.3,60.1,30.06,NE,45,1.6,2.2,70,0.00,,,0.00,pywws,2013-07-12 09:50:00,
2013-07-12 05:56:00,70.3,59.7,30.06,NE,45,1.6,3.1,69,0.00,,,0.00,pywws,2013-07-12 09:56:00,
2013-07-12 06:05:00,70.3,59.7,30.07,North,0,3.8,5.4,69,0.00,,,0.00,pywws,2013-07-12 10:05:00,
2013-07-12 06:11:00,70.3,59.7,30.07,North,0,1.6,5.4,69,0.00,,,0.00,pywws,2013-07-12 10:11:00,
2013-07-12 06:16:00,70.5,59.8,30.08,East,90,2.2,4.5,69,0.00,,,0.00,pywws,2013-07-12 10:16:00,
2013-07-12 06:22:00,70.5,59.4,30.08,NE,45,0.7,1.6,68,0.00,,,0.00,pywws,2013-07-12 10:22:00,
2013-07-12 06:28:00,70.5,59.4,30.08,West,270,0.7,2.2,68,0.00,,,0.00,pywws,2013-07-12 10:28:00,
2013-07-12 06:33:00,70.7,59.6,30.09,East,90,1.6,2.2,68,0.00,,,0.00,pywws,2013-07-12 10:33:00,
2013-07-12 06:39:00,70.7,59.6,30.09,North,0,0.0,0.7,68,0.00,,,0.00,pywws,2013-07-12 10:39:00,
2013-07-12 06:44:00,70.7,60.0,30.09,North,0,2.2,3.8,69,0.00,,,0.00,pywws,2013-07-12 10:44:00,
2013-07-12 06:50:00,70.7,60.0,30.09,North,0,2.2,3.8,69,0.00,,,0.00,pywws,2013-07-12 10:50:00,
2013-07-12 06:56:00,70.9,60.2,30.09,North,0,0.7,3.1,69,0.00,,,0.00,pywws,2013-07-12 10:56:00,
2013-07-12 07:01:00,70.9,60.2,30.09,North,0,0.7,3.1,69,0.00,,,0.00,pywws,2013-07-12 11:01:00,
2013-07-12 07:07:00,71.1,60.4,30.09,South,180,3.8,6.9,69,0.00,,,0.00,pywws,2013-07-12 11:07:00,
2013-07-12 07:12:00,71.1,60.4,30.09,NE,45,0.7,2.2,69,0.00,,,0.00,pywws,2013-07-12 11:12:00,
2013-07-12 07:18:00,71.1,60.4,30.09,North,0,2.2,6.9,69,0.00,,,0.00,pywws,2013-07-12 11:18:00,
2013-07-12 07:24:00,71.1,60.4,30.09,SE,135,1.6,2.2,69,0.00,,,0.00,pywws,2013-07-12 11:24:00,
2013-07-12 07:29:00,71.1,60.4,30.09,North,0,0.7,1.6,69,0.00,,,0.00,pywws,2013-07-12 11:29:00,
2013-07-12 07:35:00,71.1,60.4,30.09,NE,45,0.0,1.6,69,0.00,,,0.00,pywws,2013-07-12 11:35:00,
2013-07-12 07:40:00,71.1,60.4,30.09,East,90,0.7,1.6,69,0.00,,,0.00,pywws,2013-07-12 11:40:00,
2013-07-12 07:46:00,71.2,60.9,30.09,North,0,0.7,1.6,70,0.00,,,0.00,pywws,2013-07-12 11:46:00,
2013-07-12 07:52:00,71.4,61.1,30.09,SE,135,0.7,2.2,70,0.00,,,0.00,pywws,2013-07-12 11:52:00,
2013-07-12 07:57:00,71.8,60.6,30.09,SE,135,2.2,5.4,68,0.00,,,0.00,pywws,2013-07-12 11:57:00,
2013-07-12 08:03:00,72.1,61.0,30.09,East,90,2.2,3.8,68,0.00,,,0.00,pywws,2013-07-12 12:03:00,
2013-07-12 08:08:00,72.5,61.3,30.09,NE,45,1.6,3.1,68,0.00,,,0.00,pywws,2013-07-12 12:08:00,
2013-07-12 08:14:00,72.9,61.7,30.10,WNW,292,2.2,5.4,68,0.00,,,0.00,pywws,2013-07-12 12:14:00,
2013-07-12 08:20:00,73.4,61.8,30.10,East,90,2.2,4.5,67,0.00,,,0.00,pywws,2013-07-12 12:20:00,
2013-07-12 08:25:00,73.8,62.1,30.09,SSE,158,1.6,3.1,67,0.00,,,0.00,pywws,2013-07-12 12:25:00,
2013-07-12 08:31:00,73.9,61.8,30.10,North,0,1.6,4.5,66,0.00,,,0.00,pywws,2013-07-12 12:31:00,
2013-07-12 08:36:00,74.1,62.4,30.10,NE,45,2.2,3.8,67,0.00,,,0.00,pywws,2013-07-12 12:36:00,
2013-07-12 08:42:00,74.3,62.2,30.10,East,90,2.2,3.8,66,0.00,,,0.00,pywws,2013-07-12 12:42:00,
2013-07-12 08:48:00,74.5,62.4,30.10,SW,225,3.1,4.5,66,0.00,,,0.00,pywws,2013-07-12 12:48:00,
2013-07-12 08:53:00,74.8,62.3,30.11,East,90,2.2,3.8,65,0.00,,,0.00,pywws,2013-07-12 12:53:00,
2013-07-12 08:59:00,75.0,62.9,30.11,East,90,2.2,6.0,66,0.00,,,0.00,pywws,2013-07-12 12:59:00,
2013-07-12 09:04:00,75.2,62.2,30.11,SW,225,1.6,3.8,64,0.00,,,0.00,pywws,2013-07-12 13:04:00,
2013-07-12 09:10:00,75.4,62.3,30.11,NE,45,2.2,3.8,64,0.00,,,0.00,pywws,2013-07-12 13:10:00,
2013-07-12 09:16:00,75.6,62.5,30.11,NE,45,1.6,3.1,64,0.00,,,0.00,pywws,2013-07-12 13:16:00,
2013-07-12 09:21:00,75.9,62.8,30.11,NE,45,2.2,4.5,64,0.00,,,0.00,pywws,2013-07-12 13:21:00,
2013-07-12 09:27:00,76.5,63.4,30.11,ESE,112,2.2,6.0,64,0.00,,,0.00,pywws,2013-07-12 13:27:00,
2013-07-12 09:32:00,76.6,63.5,30.11,ESE,112,1.6,3.1,64,0.00,,,0.00,pywws,2013-07-12 13:32:00,
2013-07-12 09:38:00,76.8,63.7,30.12,East,90,2.2,3.8,64,0.00,,,0.00,pywws,2013-07-12 13:38:00,
2013-07-12 09:44:00,77.4,63.8,30.11,East,90,6.0,7.6,63,0.00,,,0.00,pywws,2013-07-12 13:44:00,
2013-07-12 09:49:00,77.7,63.6,30.11,NE,45,1.6,3.8,62,0.00,,,0.00,pywws,2013-07-12 13:49:00,
2013-07-12 09:55:00,78.3,64.2,30.11,SSW,202,1.6,3.1,62,0.00,,,0.00,pywws,2013-07-12 13:55:00,
2013-07-12 10:00:00,78.4,63.4,30.11,SE,135,2.2,3.8,60,0.00,,,0.00,pywws,2013-07-12 14:00:00,
2013-07-12 10:06:00,78.1,63.5,30.12,NNE,22,2.2,4.5,61,0.00,,,0.00,pywws,2013-07-12 14:06:00,
2013-07-12 10:12:00,78.3,63.7,30.12,NE,45,1.6,3.1,61,0.00,,,0.00,pywws,2013-07-12 14:12:00,
2013-07-12 10:17:00,78.4,63.9,30.12,East,90,1.6,3.8,61,0.00,,,0.00,pywws,2013-07-12 14:17:00,
2013-07-12 10:23:00,78.8,64.2,30.12,NE,45,3.8,5.4,61,0.00,,,0.00,pywws,2013-07-12 14:23:00,
2013-07-12 10:28:00,78.8,62.8,30.12,NE,45,1.6,3.1,58,0.00,,,0.00,pywws,2013-07-12 14:28:00,
2013-07-12 10:34:00,78.6,63.6,30.13,East,90,1.6,3.8,60,0.00,,,0.00,pywws,2013-07-12 14:34:00,
2013-07-12 10:40:00,78.6,64.5,30.13,NE,45,2.2,3.1,62,0.00,,,0.00,pywws,2013-07-12 14:40:00,
2013-07-12 10:45:00,78.1,63.0,30.13,ESE,112,6.9,9.2,60,0.00,,,0.00,pywws,2013-07-12 14:45:00,
2013-07-12 10:51:00,77.7,63.6,30.13,SE,135,6.0,8.3,62,0.00,,,0.00,pywws,2013-07-12 14:51:00,
2013-07-12 10:56:00,77.7,63.6,30.13,East,90,3.1,5.4,62,0.00,,,0.00,pywws,2013-07-12 14:56:00,
2013-07-12 11:02:00,77.9,63.3,30.13,SE,135,1.6,2.2,61,0.00,,,0.00,pywws,2013-07-12 15:02:00,
2013-07-12 11:08:00,78.6,64.9,30.13,NE,45,3.1,5.4,63,0.00,,,0.00,pywws,2013-07-12 15:08:00,
2013-07-12 11:13:00,79.5,64.9,30.13,NE,45,2.2,4.5,61,0.00,,,0.00,pywws,2013-07-12 15:13:00,
2013-07-12 11:19:00,80.4,65.2,30.12,SE,135,3.1,6.0,60,0.00,,,0.00,pywws,2013-07-12 15:19:00,
2013-07-12 11:24:00,81.0,65.7,30.13,NE,45,3.1,5.4,60,0.00,,,0.00,pywws,2013-07-12 15:24:00,
2013-07-12 11:30:00,80.8,63.6,30.13,East,90,3.8,6.0,56,0.00,,,0.00,pywws,2013-07-12 15:30:00,
2013-07-12 11:36:00,80.2,64.6,30.13,North,0,1.6,3.1,59,0.00,,,0.00,pywws,2013-07-12 15:36:00,
2013-07-12 11:42:00,80.1,64.4,30.13,NE,45,2.2,3.8,59,0.00,,,0.00,pywws,2013-07-12 15:42:00,
2013-07-12 11:48:00,79.7,64.1,30.14,NW,315,2.2,4.5,59,0.00,,,0.00,pywws,2013-07-12 15:48:00,
2013-07-12 11:53:00,79.3,63.7,30.13,NE,45,1.6,2.2,59,0.00,,,0.00,pywws,2013-07-12 15:53:00,
2013-07-12 11:59:00,79.0,63.9,30.13,East,90,2.2,3.1,60,0.00,,,0.00,pywws,2013-07-12 15:59:00,
2013-07-12 12:04:00,78.6,64.5,30.13,East,90,1.6,3.1,62,0.00,,,0.00,pywws,2013-07-12 16:04:00,
2013-07-12 12:10:00,78.6,64.5,30.13,NE,45,1.6,3.1,62,0.00,,,0.00,pywws,2013-07-12 16:10:00,
2013-07-12 12:16:00,78.4,64.3,30.13,East,90,1.6,3.8,62,0.00,,,0.00,pywws,2013-07-12 16:16:00,
2013-07-12 12:21:00,77.9,64.3,30.13,East,90,3.8,5.4,63,0.00,,,0.00,pywws,2013-07-12 16:21:00,
2013-07-12 12:27:00,77.9,64.3,30.13,East,90,4.5,8.3,63,0.00,,,0.00,pywws,2013-07-12 16:27:00,
2013-07-12 12:32:00,77.5,63.9,30.13,East,90,4.5,9.2,63,0.00,,,0.00,pywws,2013-07-12 16:32:00,
2013-07-12 12:38:00,76.8,63.7,30.13,SE,135,4.5,6.0,64,0.00,,,0.00,pywws,2013-07-12 16:38:00,
2013-07-12 12:44:00,76.6,64.0,30.13,ESE,112,1.6,4.5,65,0.00,,,0.00,pywws,2013-07-12 16:44:00,
2013-07-12 12:49:00,76.6,64.0,30.13,East,90,1.6,2.2,65,0.00,,,0.00,pywws,2013-07-12 16:49:00,
2013-07-12 12:55:00,77.2,64.0,30.13,SE,135,5.4,9.2,64,0.00,,,0.00,pywws,2013-07-12 16:55:00,
2013-07-12 13:00:00,77.2,64.0,30.13,East,90,1.6,3.1,64,0.00,,,0.00,pywws,2013-07-12 17:00:00,
2013-07-12 13:06:00,77.5,64.4,30.13,East,90,0.7,1.6,64,0.00,,,0.00,pywws,2013-07-12 17:06:00,
2013-07-12 13:12:00,77.9,64.7,30.13,East,90,3.8,5.4,64,0.00,,,0.00,pywws,2013-07-12 17:12:00,
2013-07-12 13:17:00,77.9,64.7,30.13,East,90,1.6,3.1,64,0.00,,,0.00,pywws,2013-07-12 17:17:00,
2013-07-12 13:22:00,77.7,64.6,30.14,NE,45,0.7,1.6,64,0.00,,,0.00,pywws,2013-07-12 17:22:00,
2013-07-12 13:28:00,77.7,64.6,30.13,NE,45,0.7,1.6,64,0.00,,,0.00,pywws,2013-07-12 17:28:00,
2013-07-12 13:33:00,77.4,64.7,30.13,East,90,1.6,3.1,65,0.00,,,0.00,pywws,2013-07-12 17:33:00,
2013-07-12 13:38:00,77.4,64.7,30.13,East,90,3.1,4.5,65,0.00,,,0.00,pywws,2013-07-12 17:38:00,
2013-07-12 13:45:00,77.0,64.3,30.14,East,90,3.8,6.0,65,0.00,,,0.00,pywws,2013-07-12 17:45:00,
2013-07-12 13:50:00,76.8,64.6,30.13,East,90,4.5,6.9,66,0.00,,,0.00,pywws,2013-07-12 17:50:00,
2013-07-12 13:55:00,76.6,64.4,30.13,ESE,112,2.2,4.5,66,0.00,,,0.00,pywws,2013-07-12 17:55:00,
2013-07-12 14:00:00,76.8,64.6,30.13,East,90,4.5,6.0,66,0.00,,,0.00,pywws,2013-07-12 18:00:00,
2013-07-12 14:05:00,76.8,64.6,30.13,East,90,5.4,8.3,66,0.00,,,0.00,pywws,2013-07-12 18:05:00,
2013-07-12 14:11:00,76.8,64.6,30.13,East,90,3.8,6.9,66,0.00,,,0.00,pywws,2013-07-12 18:11:00,
2013-07-12 14:18:00,77.0,64.8,30.13,East,90,5.4,7.6,66,0.00,,,0.00,pywws,2013-07-12 18:18:00,
2013-07-12 14:24:00,77.2,64.5,30.13,East,90,1.6,3.1,65,0.00,,,0.00,pywws,2013-07-12 18:24:00,
2013-07-12 14:29:00,77.4,65.1,30.13,SE,135,1.6,3.1,66,0.00,,,0.00,pywws,2013-07-12 18:29:00,
2013-07-12 14:34:00,77.4,64.7,30.13,North,0,1.6,3.1,65,0.00,,,0.00,pywws,2013-07-12 18:34:00,
2013-07-12 14:40:00,77.5,64.8,30.13,East,90,3.1,5.4,65,0.00,,,0.00,pywws,2013-07-12 18:40:00,
2013-07-12 14:45:00,77.5,64.4,30.13,East,90,6.0,9.2,64,0.00,,,0.00,pywws,2013-07-12 18:45:00,
2013-07-12 14:51:00,77.5,64.8,30.14,NE,45,3.1,6.9,65,0.00,,,0.00,pywws,2013-07-12 18:51:00,
2013-07-12 14:57:00,77.7,65.0,30.13,ESE,112,4.5,6.9,65,0.00,,,0.00,pywws,2013-07-12 18:57:00,
2013-07-12 15:02:00,77.9,65.2,30.13,SSE,158,4.5,7.6,65,0.00,,,0.00,pywws,2013-07-12 19:02:00,
2013-07-12 15:08:00,78.3,65.5,30.12,East,90,0.7,2.2,65,0.00,,,0.00,pywws,2013-07-12 19:08:00,
2013-07-12 15:14:00,78.3,65.5,30.13,ESE,112,3.8,6.0,65,0.00,,,0.00,pywws,2013-07-12 19:14:00,
2013-07-12 15:19:00,78.3,65.5,30.13,East,90,3.1,4.5,65,0.00,,,0.00,pywws,2013-07-12 19:19:00,
2013-07-12 15:24:00,78.4,65.7,30.12,East,90,1.6,2.2,65,0.00,,,0.00,pywws,2013-07-12 19:24:00,
2013-07-12 15:30:00,78.6,65.8,30.13,SE,135,4.5,6.0,65,0.00,,,0.00,pywws,2013-07-12 19:30:00,
2013-07-12 15:36:00,78.3,65.1,30.13,NE,45,3.8,6.0,64,0.00,,,0.00,pywws,2013-07-12 19:36:00,
2013-07-12 15:41:00,78.3,65.5,30.13,East,90,1.6,3.1,65,0.00,,,0.00,pywws,2013-07-12 19:41:00,
2013-07-12 15:47:00,78.3,65.5,30.12,NE,45,1.6,2.2,65,0.00,,,0.00,pywws,2013-07-12 19:47:00,
2013-07-12 15:53:00,78.3,65.5,30.12,East,90,3.1,5.4,65,0.00,,,0.00,pywws,2013-07-12 19:53:00,
2013-07-12 15:58:00,78.3,65.5,30.12,NNE,22,1.6,2.2,65,0.00,,,0.00,pywws,2013-07-12 19:58:00,
2013-07-12 16:04:00,77.9,65.2,30.12,North,0,3.1,5.4,65,0.00,,,0.00,pywws,2013-07-12 20:04:00,
2013-07-12 16:09:00,77.9,65.2,30.12,North,0,2.2,3.8,65,0.00,,,0.00,pywws,2013-07-12 20:09:00,
2013-07-12 16:14:00,77.9,65.6,30.12,East,90,1.6,3.1,66,0.00,,,0.00,pywws,2013-07-12 20:14:00,
2013-07-12 16:20:00,77.7,65.4,30.12,NE,45,0.7,1.6,66,0.00,,,0.00,pywws,2013-07-12 20:20:00,
2013-07-12 16:26:00,77.4,65.5,30.13,East,90,2.2,3.8,67,0.00,,,0.00,pywws,2013-07-12 20:26:00,
2013-07-12 16:31:00,77.0,65.2,30.13,East,90,3.8,4.5,67,0.00,,,0.00,pywws,2013-07-12 20:31:00,
2013-07-12 16:36:00,76.6,65.7,30.12,East,90,1.6,3.1,69,0.00,,,0.00,pywws,2013-07-12 20:36:00,
2013-07-12 16:42:00,76.3,66.2,30.13,East,90,4.5,6.9,71,0.00,,,0.00,pywws,2013-07-12 20:42:00,
2013-07-12 16:48:00,76.1,66.4,30.13,East,90,3.8,4.5,72,0.00,,,0.00,pywws,2013-07-12 20:48:00,
2013-07-12 16:53:00,75.7,66.1,30.13,SSE,158,1.6,3.1,72,0.00,,,0.00,pywws,2013-07-12 20:53:00,
2013-07-12 16:58:00,75.4,66.1,30.13,East,90,1.6,3.1,73,0.00,,,0.00,pywws,2013-07-12 20:58:00,
2013-07-12 17:04:00,75.2,65.9,30.14,SE,135,4.5,8.3,73,0.00,,,0.00,pywws,2013-07-12 21:04:00,
2013-07-12 17:09:00,75.0,66.2,30.14,ESE,112,1.6,3.1,74,0.00,,,0.00,pywws,2013-07-12 21:09:00,
2013-07-12 17:14:00,74.8,66.4,30.14,East,90,3.1,4.5,75,0.00,,,0.00,pywws,2013-07-12 21:14:00,
2013-07-12 17:19:00,74.7,66.2,30.14,East,90,2.2,4.5,75,0.00,,,0.00,pywws,2013-07-12 21:19:00,
2013-07-12 17:24:00,74.5,66.0,30.14,East,90,3.1,4.5,75,0.00,,,0.00,pywws,2013-07-12 21:24:00,
2013-07-12 17:30:00,74.3,66.2,30.14,East,90,3.1,3.8,76,0.00,,,0.00,pywws,2013-07-12 21:30:00,
2013-07-12 17:36:00,74.1,66.1,30.14,East,90,3.1,3.8,76,0.00,,,0.00,pywws,2013-07-12 21:36:00,
2013-07-12 17:41:00,74.1,66.1,30.14,East,90,1.6,2.2,76,0.00,,,0.00,pywws,2013-07-12 21:41:00,
2013-07-12 17:47:00,74.3,66.2,30.14,East,90,0.7,2.2,76,0.00,,,0.00,pywws,2013-07-12 21:47:00,
2013-07-12 17:53:00,74.3,66.2,30.13,SE,135,1.6,3.8,76,0.00,,,0.00,pywws,2013-07-12 21:53:00,
2013-07-12 17:58:00,74.5,66.4,30.14,NE,45,3.1,4.5,76,0.00,,,0.00,pywws,2013-07-12 21:58:00,
2013-07-12 18:03:00,74.5,66.4,30.14,East,90,1.6,3.8,76,0.00,,,0.00,pywws,2013-07-12 22:03:00,
2013-07-12 18:08:00,74.5,66.0,30.14,SE,135,2.2,4.5,75,0.00,,,0.00,pywws,2013-07-12 22:08:00,
2013-07-12 18:14:00,74.5,66.0,30.14,East,90,5.4,7.6,75,0.00,,,0.00,pywws,2013-07-12 22:14:00,
2013-07-12 18:20:00,74.3,65.8,30.14,NE,45,3.8,6.9,75,0.00,,,0.00,pywws,2013-07-12 22:20:00,
2013-07-12 18:25:00,74.5,66.0,30.14,East,90,2.2,3.8,75,0.00,,,0.00,pywws,2013-07-12 22:25:00,
2013-07-12 18:31:00,74.5,65.6,30.14,East,90,2.2,5.4,74,0.00,,,0.00,pywws,2013-07-12 22:31:00,
2013-07-12 18:36:00,74.5,65.6,30.14,NE,45,3.1,6.0,74,0.00,,,0.00,pywws,2013-07-12 22:36:00,
2013-07-12 18:42:00,74.5,65.6,30.14,SE,135,3.1,6.0,74,0.00,,,0.00,pywws,2013-07-12 22:42:00,
2013-07-12 18:47:00,74.3,65.8,30.14,NE,45,3.8,5.4,75,0.00,,,0.00,pywws,2013-07-12 22:47:00,
2013-07-12 18:52:00,74.1,65.7,30.14,ESE,112,5.4,9.2,75,0.00,,,0.00,pywws,2013-07-12 22:52:00,
2013-07-12 18:58:00,74.1,65.7,30.14,SE,135,6.0,7.6,75,0.00,,,0.00,pywws,2013-07-12 22:58:00,
2013-07-12 19:03:00,73.9,65.5,30.14,East,90,3.8,6.9,75,0.00,,,0.00,pywws,2013-07-12 23:03:00,
2013-07-12 19:08:00,73.9,65.5,30.14,East,90,2.2,6.0,75,0.00,,,0.00,pywws,2013-07-12 23:08:00,
2013-07-12 19:14:00,74.1,65.7,30.14,ESE,112,1.6,3.8,75,0.00,,,0.00,pywws,2013-07-12 23:14:00,
2013-07-12 19:19:00,74.1,65.7,30.14,SE,135,4.5,9.2,75,0.00,,,0.00,pywws,2013-07-12 23:19:00,
2013-07-12 19:25:00,74.1,65.3,30.15,East,90,3.8,9.8,74,0.00,,,0.00,pywws,2013-07-12 23:25:00,
2013-07-12 19:30:00,74.1,65.3,30.14,NE,45,3.1,4.5,74,0.00,,,0.00,pywws,2013-07-12 23:30:00,
2013-07-12 19:36:00,73.9,65.1,30.15,East,90,3.8,5.4,74,0.00,,,0.00,pywws,2013-07-12 23:36:00,
2013-07-12 19:41:00,73.9,65.1,30.15,SE,135,3.8,4.5,74,0.00,,,0.00,pywws,2013-07-12 23:41:00,
2013-07-12 19:47:00,73.9,65.5,30.15,ESE,112,1.6,3.1,75,0.00,,,0.00,pywws,2013-07-12 23:47:00,
2013-07-12 19:52:00,73.9,65.5,30.15,ESE,112,3.8,9.2,75,0.00,,,0.00,pywws,2013-07-12 23:52:00,
2013-07-12 19:58:00,73.8,65.3,30.16,SE,135,2.2,4.5,75,0.00,,,0.00,pywws,2013-07-12 23:58:00,
2013-07-12 20:04:00,73.6,65.2,30.16,ESE,112,7.6,12.1,75,0.00,,,0.00,pywws,2013-07-13 00:04:00,
2013-07-12 20:09:00,73.4,65.0,30.16,East,90,9.8,13.6,75,0.00,,,0.00,pywws,2013-07-13 00:09:00,
2013-07-12 20:14:00,73.2,64.4,30.16,ESE,112,4.5,6.9,74,0.00,,,0.00,pywws,2013-07-13 00:14:00,
2013-07-12 20:20:00,73.2,64.4,30.16,East,90,6.0,8.3,74,0.00,,,0.00,pywws,2013-07-13 00:20:00,
2013-07-12 20:26:00,73.0,64.6,30.16,East,90,2.2,4.5,75,0.00,,,0.00,pywws,2013-07-13 00:26:00,
2013-07-12 20:31:00,72.7,64.7,30.16,East,90,6.0,7.6,76,0.00,,,0.00,pywws,2013-07-13 00:31:00,
2013-07-12 20:37:00,72.3,64.7,30.16,ESE,112,3.1,6.9,77,0.00,,,0.00,pywws,2013-07-13 00:37:00,
2013-07-12 20:42:00,71.8,64.9,30.16,ESE,112,0.7,3.1,79,0.00,,,0.00,pywws,2013-07-13 00:42:00,
2013-07-12 20:47:00,71.4,65.3,30.16,East,90,4.5,6.0,81,0.00,,,0.00,pywws,2013-07-13 00:47:00,
2013-07-12 20:52:00,71.2,65.5,30.16,SE,135,3.8,6.0,82,0.01,,,0.01,pywws,2013-07-13 00:52:00,
2013-07-12 20:57:00,70.9,65.5,30.17,SE,135,6.0,9.8,83,0.01,,,0.01,pywws,2013-07-13 00:57:00,
2013-07-12 21:03:00,70.7,65.3,30.17,East,90,3.1,4.5,83,0.01,,,0.01,pywws,2013-07-13 01:03:00,
2013-07-12 21:08:00,70.5,65.4,30.16,East,90,2.2,3.1,84,0.01,,,0.01,pywws,2013-07-13 01:08:00,
2013-07-12 21:14:00,70.3,65.3,30.17,NE,45,2.2,3.1,84,0.01,,,0.01,pywws,2013-07-13 01:14:00,
2013-07-12 21:19:00,70.2,65.4,30.17,East,90,2.2,3.1,85,0.02,,,0.02,pywws,2013-07-13 01:19:00,
2013-07-12 21:24:00,70.2,65.4,30.18,East,90,2.2,3.8,85,0.05,,,0.05,pywws,2013-07-13 01:24:00,
2013-07-12 21:30:00,70.0,65.6,30.18,SE,135,1.6,3.1,86,0.06,,,0.06,pywws,2013-07-13 01:30:00,
2013-07-12 21:36:00,69.8,65.4,30.18,East,90,3.8,6.9,86,0.06,,,0.06,pywws,2013-07-13 01:36:00,
2013-07-12 21:42:00,69.6,65.6,30.18,East,90,3.8,5.4,87,0.06,,,0.06,pywws,2013-07-13 01:42:00,
2013-07-12 21:47:00,69.6,65.6,30.18,SE,135,2.2,5.4,87,0.06,,,0.06,pywws,2013-07-13 01:47:00,
2013-07-12 21:52:00,69.4,65.4,30.18,East,90,2.2,3.8,87,0.06,,,0.06,pywws,2013-07-13 01:52:00,
2013-07-12 21:58:00,69.4,65.4,30.18,NE,45,2.2,3.8,87,0.05,,,0.06,pywws,2013-07-13 01:58:00,
2013-07-12 22:04:00,69.3,65.2,30.18,SE,135,1.6,3.1,87,0.05,,,0.06,pywws,2013-07-13 02:04:00,
2013-07-12 22:10:00,69.3,65.2,30.18,East,90,2.2,5.4,87,0.05,,,0.06,pywws,2013-07-13 02:10:00,
2013-07-12 22:16:00,69.1,65.0,30.18,East,90,3.8,9.2,87,0.04,,,0.06,pywws,2013-07-13 02:16:00,
2013-07-12 22:21:00,69.1,65.0,30.18,NE,45,2.2,4.5,87,0.02,,,0.06,pywws,2013-07-13 02:21:00,
2013-07-12 22:26:00,69.1,65.4,30.18,East,90,2.2,3.8,88,0.02,,,0.07,pywws,2013-07-13 02:26:00,
2013-07-12 22:32:00,69.1,65.4,30.19,East,90,1.6,3.1,88,0.01,,,0.07,pywws,2013-07-13 02:32:00,
2013-07-12 22:37:00,69.1,65.4,30.19,ESE,112,2.2,3.8,88,0.01,,,0.07,pywws,2013-07-13 02:37:00,
2013-07-12 22:42:00,68.9,65.2,30.19,East,90,2.2,3.8,88,0.01,,,0.07,pywws,2013-07-13 02:42:00,
2013-07-12 22:47:00,68.9,65.2,30.19,East,90,1.6,3.1,88,0.01,,,0.07,pywws,2013-07-13 02:47:00,
2013-07-12 22:53:00,68.7,65.0,30.19,NE,45,1.6,3.1,88,0.01,,,0.07,pywws,2013-07-13 02:53:00,
2013-07-12 22:58:00,68.5,64.8,30.19,NE,45,1.6,2.2,88,0.01,,,0.07,pywws,2013-07-13 02:58:00,
2013-07-12 23:03:00,68.5,64.8,30.19,East,90,4.5,7.6,88,0.01,,,0.07,pywws,2013-07-13 03:03:00,
2013-07-12 23:09:00,68.4,64.7,30.19,ESE,112,3.1,3.8,88,0.01,,,0.07,pywws,2013-07-13 03:09:00,
2013-07-12 23:14:00,68.4,64.3,30.19,NE,45,3.1,7.6,87,0.01,,,0.07,pywws,2013-07-13 03:14:00,
2013-07-12 23:20:00,68.2,64.2,30.19,SE,135,2.2,3.1,87,0.01,,,0.07,pywws,2013-07-13 03:20:00,
2013-07-12 23:26:00,68.0,64.0,30.19,North,0,2.2,4.5,87,0.00,,,0.07,pywws,2013-07-13 03:26:00,
2013-07-12 23:32:00,68.0,64.0,30.19,NE,45,1.6,3.1,87,0.00,,,0.07,pywws,2013-07-13 03:32:00,
2013-07-12 23:37:00,67.8,64.1,30.19,NE,45,2.2,3.8,88,0.00,,,0.07,pywws,2013-07-13 03:37:00,
2013-07-12 23:43:00,67.6,64.0,30.20,SE,135,2.2,3.8,88,0.00,,,0.07,pywws,2013-07-13 03:43:00,
2013-07-12 23:48:00,67.5,63.8,30.20,NW,315,0.7,1.6,88,0.00,,,0.07,pywws,2013-07-13 03:48:00,
2013-07-12 23:54:00,67.5,63.8,30.20,SE,135,1.6,3.1,88,0.01,,,0.08,pywws,2013-07-13 03:54:00,
2013-07-12 23:59:00,67.3,63.6,30.21,East,90,3.8,4.5,88,0.01,,,0.08,pywws,2013-07-13 03:59:00,